Latest Weather Observations for Wagga Wagga

IDN60801

Issued at 11:04 am EDT Friday 27 February 2015 (issued every 30 minutes, with the page automatically refreshed every 10 minutes)

About weather observations | Map of weather stations | Latest weather observations for NSW | Other Formats
Station Details ID: 072150 Name: WAGGA WAGGA AMO Lat: -35.16 Lon: 147.46 Height: 212.0 m
Data from the previous 72 hours. | See also: Recent months at Wagga Wagga
Date/Time
EDT
Temp
°C
App
Temp
°C
Dew
Point
Rel
Hum
%
Delta-T
°C
Wind Press
QNH
hPa
Press
MSL
hPa
Rain
since 9 am
mm
Dir
 
Spd
km/h
Gust
km/h
Spd
kts
Gust
kts
27/10:30am 25.0 23.7 13.7 49 6.7 NE 13 20 7 11 1010.7 1009.7 0.0
27/10:00am 23.9 22.2 13.5 52 6.1 NE 15 20 8 11 1010.4 1009.4 0.0
27/09:30am 23.0 21.8 14.0 57 5.3 ENE 13 19 7 10 1010.6 1009.6 0.0
27/09:00am 21.6 20.8 14.1 62 4.4 ENE 11 15 6 8 1010.5 1009.5 0.0
27/08:30am 20.7 20.7 14.2 66 3.8 ENE 7 11 4 6 1010.2 1009.1 0.0
27/08:00am 19.4 20.8 14.5 73 2.9 CALM 0 0 0 0 1009.9 1008.8 0.0
27/07:00am 15.2 15.8 13.1 87 1.2 SE 2 7 1 4 1009.4 1008.3 0.0
27/06:30am 15.9 15.5 13.1 83 1.6 E 7 9 4 5 1008.8 1007.8 0.0
27/05:30am 18.8 17.9 13.8 72 2.9 ESE 11 13 6 7 1008.5 1007.5 0.0
27/05:00am 18.5 17.6 13.8 74 2.7 E 11 13 6 7 1008.5 1007.5 0.0
27/04:30am 17.3 16.7 13.4 78 2.2 SE 9 9 5 5 1008.6 1007.6 0.0
27/04:00am 19.8 19.2 13.6 67 3.6 E 9 11 5 6 1008.6 1007.6 0.0
27/03:30am 20.4 20.0 13.1 63 4.2 E 7 7 4 4 1008.7 1007.7 0.0
27/03:00am 20.8 21.7 12.8 60 4.6 CALM 0 0 0 0 1008.9 1007.9 0.0
27/02:30am 20.3 20.9 13.0 63 4.2 S 2 7 1 4 1008.9 1007.9 0.0
27/02:00am 21.5 19.4 12.4 56 5.2 ENE 15 19 8 10 1008.9 1007.9 0.0
27/01:30am 21.4 19.8 12.7 57 5.0 E 13 17 7 9 1009.0 1008.0 0.0
27/01:00am 21.4 20.1 12.5 57 5.1 E 11 15 6 8 1008.9 1007.9 0.0
27/12:30am 20.1 18.6 13.1 64 4.0 E 13 17 7 9 1008.9 1007.9 0.0
27/12:00am 19.8 20.9 13.6 67 3.6 CALM 0 0 0 0 1008.7 1007.7 0.0
 
Date/Time
EDT
Temp
°C
App
Temp
°C
Dew
Point
Rel
Hum
%
Delta-T
°C
Wind Press
QNH
hPa
Press
MSL
hPa
Rain
since 9 am
mm
Dir
 
Spd
km/h
Gust
km/h
Spd
kts
Gust
kts
26/11:30pm 20.3 21.5 13.8 66 3.8 CALM 0 0 0 0 1008.8 1007.8 0.0
26/11:00pm 20.4 19.7 13.3 63 4.1 S 9 11 5 6 1008.8 1007.8 0.0
26/10:30pm 21.5 20.1 13.4 60 4.7 S 13 13 7 7 1008.9 1007.9 0.0
26/10:00pm 22.5 20.8 12.6 53 5.7 S 13 15 7 8 1008.6 1007.6 0.0
26/09:30pm 22.9 21.5 12.3 51 6.1 SSE 11 11 6 6 1008.3 1007.3 0.0
26/09:00pm 23.3 21.3 11.5 47 6.7 SSW 13 15 7 8 1007.8 1006.8 0.0
26/08:30pm 23.8 20.8 10.8 44 7.3 SSW 17 19 9 10 1007.4 1006.4 0.0
26/08:00pm 25.1 22.8 10.3 39 8.3 SSW 13 15 7 8 1007.0 1006.0 0.0
26/07:30pm 27.2 24.1 8.7 31 10.2 SSW 15 19 8 10 1006.6 1005.6 0.0
26/07:00pm 28.1 24.3 7.5 27 11.2 S 17 22 9 12 1006.4 1005.4 0.0
26/06:30pm 28.7 24.3 7.4 26 11.6 S 20 28 11 15 1006.2 1005.2 0.0
26/06:00pm 29.2 25.8 9.3 29 11.2 SSW 17 26 9 14 1006.1 1005.1 0.0
26/05:30pm 28.5 26.5 11.5 34 9.9 SSW 13 22 7 12 1006.2 1005.2 0.0
26/05:00pm 28.5 27.5 12.4 37 9.5 SSW 9 22 5 12 1006.4 1005.4 0.0
26/04:30pm 29.1 27.3 12.1 35 10.0 W 13 19 7 10 1006.6 1005.6 0.0
26/04:00pm 28.5 26.9 12.9 38 9.3 SSE 13 19 7 10 1006.8 1005.8 0.0
26/03:30pm 28.0 27.5 13.9 42 8.5 SE 9 13 5 7 1007.3 1006.3 0.0
26/03:00pm 26.4 25.9 13.9 46 7.5 NW 9 15 5 8 1007.5 1006.5 0.0
26/02:30pm 26.3 26.5 14.2 47 7.3 WNW 6 13 3 7 1007.9 1006.9 0.0
26/02:00pm 25.9 25.9 14.3 48 7.0 WNW 7 9 4 5 1008.5 1007.5 0.0
26/01:30pm 25.2 25.4 14.2 50 6.6 NNE 6 13 3 7 1008.6 1007.6 0.0
26/01:00pm 25.1 24.7 14.0 50 6.6 NW 9 15 5 8 1009.1 1008.1 0.0
26/12:30pm 25.2 24.4 14.0 49 6.7 NNW 11 19 6 10 1009.5 1008.4 0.0
26/12:00pm 24.7 24.0 13.3 49 6.7 NE 9 17 5 9 1009.7 1008.6 0.0
26/11:30am 24.0 24.0 13.7 52 6.1 ENE 6 15 3 8 1010.0 1008.9 0.0
26/11:00am 22.2 21.8 13.1 56 5.3 NE 7 9 4 5 1010.5 1009.5 0.0
26/10:30am 21.3 19.8 13.2 60 4.7 ENE 13 17 7 9 1010.1 1009.0 0.0
26/10:00am 20.9 19.0 12.9 60 4.6 ENE 15 20 8 11 1010.0 1008.9 0.0
26/09:30am 20.1 17.8 13.1 64 4.0 ENE 17 22 9 12 1010.1 1009.0 0.0
26/09:00am 19.4 17.5 12.9 66 3.7 E 15 17 8 9 1010.0 1008.9 0.0
26/08:30am 18.8 16.8 12.8 68 3.4 E 15 19 8 10 1010.0 1008.9 0.0
26/08:00am 18.1 16.8 12.6 70 3.1 E 11 15 6 8 1009.9 1008.8 0.0
26/07:30am 17.7 16.1 12.7 72 2.8 ENE 13 15 7 8 1009.7 1008.6 0.0
26/07:00am 17.4 16.1 12.6 73 2.7 E 11 15 6 8 1009.6 1008.5 0.0
26/06:30am 17.2 15.5 12.6 74 2.6 E 13 17 7 9 1009.4 1008.3 0.0
26/06:00am 17.6 15.5 12.4 71 2.9 E 15 17 8 9 1009.5 1008.4 0.0
26/05:30am 17.3 15.2 12.5 73 2.7 E 15 19 8 10 1009.3 1008.2 0.0
26/05:00am 17.5 15.4 12.5 72 2.8 E 15 19 8 10 1009.3 1008.2 0.0
26/04:30am 17.9 15.5 12.6 71 3.0 E 17 19 9 10 1009.3 1008.2 0.0
26/04:00am 18.2 15.4 12.5 69 3.2 E 19 26 10 14 1009.8 1008.7 0.0
26/03:30am 18.2 15.8 12.7 70 3.1 ENE 17 22 9 12 1010.2 1009.1 0.0
26/03:00am 18.3 15.5 12.6 69 3.2 E 19 26 10 14 1010.1 1009.0 0.0
26/02:30am 18.4 16.0 12.6 69 3.3 ENE 17 24 9 13 1010.5 1009.5 0.0
26/02:00am 18.7 17.0 12.5 67 3.5 ENE 13 17 7 9 1010.7 1009.7 0.0
26/01:30am 18.7 15.7 12.7 68 3.4 E 20 26 11 14 1010.8 1009.8 0.0
26/01:00am 18.9 16.9 12.7 67 3.5 ENE 15 20 8 11 1011.0 1010.0 0.0
26/12:30am 19.3 16.9 12.6 65 3.8 ENE 17 24 9 13 1011.2 1010.2 0.0
26/12:00am 19.5 17.8 12.6 64 3.9 NE 13 20 7 11 1011.3 1010.3 0.0
 
Date/Time
EDT
Temp
°C
App
Temp
°C
Dew
Point
Rel
Hum
%
Delta-T
°C
Wind Press
QNH
hPa
Press
MSL
hPa
Rain
since 9 am
mm
Dir
 
Spd
km/h
Gust
km/h
Spd
kts
Gust
kts
25/11:30pm 19.9 17.0 12.9 64 4.0 ENE 20 32 11 17 1011.3 1010.3 0.0
25/11:00pm 20.4 17.6 12.7 61 4.4 ENE 19 28 10 15 1010.9 1009.9 0.0
25/10:30pm 20.9 17.2 12.7 59 4.7 ENE 24 37 13 20 1010.8 1009.8 0.0
25/10:00pm 21.4 17.7 12.7 57 5.0 ENE 24 33 13 18 1010.8 1009.8 0.0
25/09:30pm 22.0 16.7 12.4 54 5.5 ENE 32 44 17 24 1010.5 1009.5 0.0
25/09:07pm 22.4 17.1 12.5 53 5.7 ENE 32 50 17 27 1010.2 1009.1 0.0
25/09:00pm 22.7 17.3 12.2 51 6.0 ENE 32 44 17 24 1010.1 1009.0 0.0
25/08:30pm 23.3 19.7 13.0 52 6.0 ENE 24 32 13 17 1009.9 1008.8 0.0
25/08:00pm 24.4 20.7 12.7 48 6.8 ENE 24 33 13 18 1009.7 1008.6 0.0
25/07:30pm 25.5 20.6 12.7 45 7.5 ENE 30 37 16 20 1009.4 1008.3 0.0
25/07:00pm 26.7 21.3 12.3 40 8.4 ENE 32 39 17 21 1009.3 1008.2 0.0
25/06:30pm 27.6 22.6 12.2 38 9.0 ENE 30 37 16 20 1009.4 1008.3 0.0
25/06:00pm 28.3 23.6 12.1 36 9.5 ENE 28 33 15 18 1009.6 1008.5 0.0
25/05:30pm 28.7 24.9 12.4 36 9.6 ENE 24 32 13 17 1009.7 1008.6 0.0
25/05:00pm 29.0 25.7 12.7 36 9.7 E 22 33 12 18 1009.8 1008.7 0.0
25/04:30pm 29.0 24.5 12.6 36 9.7 ENE 28 39 15 21 1010.2 1009.1 0.0
25/04:00pm 29.4 25.7 12.8 36 9.9 ENE 24 33 13 18 1010.7 1009.7 0.0
25/03:30pm 28.5 25.7 13.1 38 9.2 ENE 20 35 11 19 1011.1 1010.1 0.0
25/03:00pm 29.2 26.1 13.4 38 9.5 ENE 22 35 12 19 1011.4 1010.4 0.0
25/02:30pm 28.9 26.2 12.9 37 9.5 NE 19 28 10 15 1011.9 1010.9 0.0
25/02:00pm 28.6 25.0 13.2 38 9.2 ENE 24 35 13 19 1012.3 1011.3 0.0
25/01:30pm 27.5 24.1 12.5 39 8.8 NE 22 30 12 16 1012.9 1011.9 0.0
25/01:00pm 27.8 25.2 13.2 40 8.7 NE 19 28 10 15 1013.4 1012.4 0.0
25/12:30pm 26.8 23.6 13.1 42 8.1 NE 22 33 12 18 1013.9 1012.9 0.0
25/12:00pm 26.3 22.3 12.9 43 7.9 NE 26 35 14 19 1014.3 1013.2 0.0
25/11:30am 26.8 22.5 13.1 42 8.1 ENE 28 41 15 22 1014.5 1013.5 0.0
25/11:00am 25.1 21.9 13.2 47 7.0 NE 22 32 12 17 1014.6 1013.6 0.0
25/10:30am 24.8 21.9 13.0 47 6.9 NE 20 32 11 17 1014.5 1013.5 0.0
25/10:00am 23.7 21.1 13.3 52 6.1 NE 19 28 10 15 1014.8 1013.8 0.0
25/09:30am 23.5 21.5 13.8 54 5.7 ENE 17 19 9 10 1014.8 1013.8 0.0
25/09:00am 21.0 20.5 13.8 63 4.2 N 9 13 5 7 1015.1 1014.1 0.0
25/08:30am 20.5 21.1 14.2 67 3.7 E 4 7 2 4 1014.8 1013.8 0.0
25/08:00am 17.9 19.5 14.8 82 1.8 CALM 0 0 0 0 1014.8 1013.8 0.0
25/07:30am 18.1 18.6 15.0 82 1.8 SSW 6 9 3 5 1014.5 1013.5 0.0
25/07:00am 17.2 17.4 14.3 83 1.7 SSW 6 7 3 4 1014.4 1013.4 0.0
25/06:30am 16.9 16.9 14.1 83 1.6 SW 7 9 4 5 1014.2 1013.1 0.0
25/06:00am 17.5 18.1 14.2 81 1.9 SW 4 7 2 4 1013.8 1012.8 0.0
25/05:30am 18.2 18.1 14.0 76 2.4 N 7 11 4 6 1013.6 1012.6 0.0
25/05:00am 19.3 18.7 13.6 69 3.3 NE 9 11 5 6 1013.4 1012.4 0.0
25/04:30am 19.4 18.8 13.5 68 3.4 NE 9 15 5 8 1013.3 1012.3 0.0
25/04:00am 19.4 18.7 13.3 68 3.5 ENE 9 11 5 6 1013.4 1012.4 0.0
25/03:30am 19.8 18.7 13.0 65 3.9 NE 11 17 6 9 1013.5 1012.5 0.0
25/03:00am 19.3 19.2 13.2 68 3.5 SSE 6 11 3 6 1013.7 1012.7 0.0
25/02:30am 20.2 18.6 12.9 63 4.2 ESE 13 17 7 9 1013.7 1012.7 0.0
25/02:00am 20.3 18.4 13.0 63 4.2 E 15 26 8 14 1014.0 1013.0 0.0
25/01:30am 20.5 17.8 13.0 62 4.3 ENE 19 30 10 16 1014.2 1013.1 0.0
25/01:00am 20.7 16.7 13.0 61 4.4 ENE 26 39 14 21 1013.9 1012.9 0.0
25/12:30am 20.9 16.2 13.3 62 4.4 ENE 30 39 16 21 1014.0 1013.0 0.0
25/12:00am 21.2 16.1 13.2 60 4.6 ENE 32 43 17 23 1014.0 1013.0 0.0
 
Date/Time
EDT
Temp
°C
App
Temp
°C
Dew
Point
Rel
Hum
%
Delta-T
°C
Wind Press
QNH
hPa
Press
MSL
hPa
Rain
since 9 am
mm
Dir
 
Spd
km/h
Gust
km/h
Spd
kts
Gust
kts
24/11:30pm 21.4 16.4 13.3 60 4.7 ENE 32 43 17 23 1014.0 1013.0 0.0
24/11:00pm 21.7 16.4 13.2 58 4.9 ENE 33 43 18 23 1014.0 1013.0 0.0
24/10:30pm 22.5 16.9 13.4 56 5.3 ENE 35 46 19 25 1014.3 1013.2 0.0
24/10:00pm 23.8 18.9 13.8 53 5.9 ENE 32 46 17 25 1014.3 1013.2 0.0
24/09:30pm 24.6 21.6 14.8 54 5.9 ENE 24 32 13 17 1013.7 1012.7 0.0
24/09:00pm 24.5 25.6 17.9 66 4.2 SSW 9 11 5 6 1013.0 1012.0 0.0
24/08:30pm 25.5 25.6 17.4 61 5.1 S 13 15 7 8 1012.8 1011.8 0.0
24/08:00pm 26.7 26.9 16.8 54 6.2 SSW 11 13 6 7 1012.5 1011.5 0.0
24/07:30pm 28.6 27.7 14.9 43 8.4 SSW 13 17 7 9 1012.2 1011.2 0.0
24/07:00pm 29.7 29.2 14.9 40 9.1 S 11 19 6 10 1012.0 1011.0 0.0
24/06:30pm 29.7 28.7 14.5 39 9.3 SSW 13 19 7 10 1011.8 1010.8 0.0
24/06:00pm 31.0 30.3 14.4 36 10.2 WSW 11 17 6 9 1011.7 1010.7 0.0
24/05:30pm 31.1 31.1 15.2 38 9.9 SW 9 13 5 7 1011.8 1010.8 0.0
24/05:00pm 31.1 29.5 13.9 35 10.5 S 15 28 8 15 1011.9 1010.9 0.0
24/04:30pm 31.4 30.6 14.1 35 10.6 W 11 20 6 11 1012.1 1011.1 0.0
24/04:00pm 30.5 29.2 14.7 38 9.7 WSW 15 20 8 11 1012.3 1011.3 0.0
24/03:30pm 30.9 28.6 14.2 36 10.2 SW 19 26 10 14 1012.5 1011.5 0.0
24/03:00pm 30.6 29.7 14.9 38 9.7 W 13 20 7 11 1012.8 1011.8 0.0
24/02:30pm 30.8 29.8 14.5 37 10.0 WSW 13 22 7 12 1013.1 1012.1 0.0
24/02:00pm 29.7 29.0 15.3 41 8.9 WNW 13 24 7 13 1013.4 1012.4 0.0
24/01:41pm 29.5 29.3 14.8 40 9.0 NNE 9 13 5 7 1013.6 1012.6 0.0
24/01:30pm 29.0 28.8 14.8 42 8.7 W 9 15 5 8 1013.8 1012.8 0.0
24/01:00pm 28.8 29.2 15.4 44 8.3 SSW 7 13 4 7 1014.0 1013.0 0.0
24/12:30pm 27.9 28.8 16.2 49 7.3 W 6 13 3 7 1014.5 1013.5 0.0
24/12:00pm 27.5 28.0 16.5 51 6.9 N 9 15 5 8 1014.7 1013.7 0.0
24/11:30am 26.5 26.8 16.0 52 6.5 N 9 15 5 8 1014.9 1013.9 0.0

Other Formats:

Comma delimited format used in spreadsheet applications
http://www.bom.gov.au/fwo/IDN60801/IDN60801.94910.axf

JavaScript Object Notation format (JSON) in row-major order
http://www.bom.gov.au/fwo/IDN60801/IDN60801.94910.json